sensor_id;sensor_type;location;lat;lon;timestamp;pressure;altitude;pressure_sealevel;temperature;humidity
5455;BME280;2750;49.050;9.250;2022-08-19T00:03:27;98289.78;;;24.10;77.15
5455;BME280;2750;49.050;9.250;2022-08-19T00:08:28;98291.28;;;23.96;78.01
5455;BME280;2750;49.050;9.250;2022-08-19T00:13:30;98282.84;;;23.76;78.95
5455;BME280;2750;49.050;9.250;2022-08-19T00:18:33;98288.66;;;23.64;78.43
5455;BME280;2750;49.050;9.250;2022-08-19T00:23:34;98282.53;;;23.55;79.10
5455;BME280;2750;49.050;9.250;2022-08-19T00:28:36;98289.66;;;23.87;78.40
5455;BME280;2750;49.050;9.250;2022-08-19T00:33:39;98287.31;;;23.92;77.94
5455;BME280;2750;49.050;9.250;2022-08-19T00:38:41;98285.63;;;24.15;76.99
5455;BME280;2750;49.050;9.250;2022-08-19T00:43:43;98274.84;;;24.09;77.29
5455;BME280;2750;49.050;9.250;2022-08-19T00:48:45;98266.94;;;23.93;78.00
5455;BME280;2750;49.050;9.250;2022-08-19T00:53:47;98246.53;;;24.09;77.34
5455;BME280;2750;49.050;9.250;2022-08-19T00:58:49;98262.47;;;23.93;77.53
5455;BME280;2750;49.050;9.250;2022-08-19T01:03:52;98275.72;;;24.17;76.86
5455;BME280;2750;49.050;9.250;2022-08-19T01:08:54;98282.22;;;24.46;76.28
5455;BME280;2750;49.050;9.250;2022-08-19T01:13:56;98291.84;;;24.47;75.95
5455;BME280;2750;49.050;9.250;2022-08-19T01:18:59;98294.25;;;24.34;76.51
5455;BME280;2750;49.050;9.250;2022-08-19T01:24:03;98284.38;;;24.50;75.94
5455;BME280;2750;49.050;9.250;2022-08-19T01:29:06;98277.00;;;24.13;76.58
5455;BME280;2750;49.050;9.250;2022-08-19T01:34:08;98288.97;;;24.17;77.39
5455;BME280;2750;49.050;9.250;2022-08-19T01:39:14;98278.09;;;24.43;76.19
5455;BME280;2750;49.050;9.250;2022-08-19T01:44:16;98285.81;;;24.61;75.50
5455;BME280;2750;49.050;9.250;2022-08-19T01:49:22;98287.88;;;24.51;76.42
5455;BME280;2750;49.050;9.250;2022-08-19T01:54:27;98283.66;;;24.25;77.03
5455;BME280;2750;49.050;9.250;2022-08-19T01:59:29;98274.72;;;24.18;76.92
5455;BME280;2750;49.050;9.250;2022-08-19T02:04:31;98270.75;;;24.14;77.76
5455;BME280;2750;49.050;9.250;2022-08-19T02:09:34;98276.53;;;24.18;77.34
5455;BME280;2750;49.050;9.250;2022-08-19T02:14:36;98281.03;;;23.85;78.42
5455;BME280;2750;49.050;9.250;2022-08-19T02:19:38;98291.25;;;23.31;80.63
5455;BME280;2750;49.050;9.250;2022-08-19T02:24:40;98289.44;;;23.32;80.42
5455;BME280;2750;49.050;9.250;2022-08-19T02:29:42;98278.72;;;23.58;79.36
5455;BME280;2750;49.050;9.250;2022-08-19T02:34:44;98287.13;;;23.37;80.13
5455;BME280;2750;49.050;9.250;2022-08-19T02:39:47;98288.28;;;23.34;80.69
5455;BME280;2750;49.050;9.250;2022-08-19T02:44:48;98288.94;;;23.37;80.64
5455;BME280;2750;49.050;9.250;2022-08-19T02:49:50;98291.19;;;22.91;82.02
5455;BME280;2750;49.050;9.250;2022-08-19T02:54:52;98287.91;;;23.05;81.91
5455;BME280;2750;49.050;9.250;2022-08-19T02:59:58;98285.63;;;23.26;81.27
5455;BME280;2750;49.050;9.250;2022-08-19T03:04:59;98277.69;;;23.26;81.37
5455;BME280;2750;49.050;9.250;2022-08-19T03:10:04;98285.28;;;23.13;81.50
5455;BME280;2750;49.050;9.250;2022-08-19T03:15:07;98275.19;;;23.17;81.87
5455;BME280;2750;49.050;9.250;2022-08-19T03:20:10;98277.97;;;22.99;82.82
5455;BME280;2750;49.050;9.250;2022-08-19T03:25:13;98288.22;;;23.02;82.69
5455;BME280;2750;49.050;9.250;2022-08-19T03:30:14;98302.94;;;23.05;82.62
5455;BME280;2750;49.050;9.250;2022-08-19T03:35:16;98307.06;;;22.91;83.16
5455;BME280;2750;49.050;9.250;2022-08-19T03:40:19;98308.16;;;22.72;83.88
5455;BME280;2750;49.050;9.250;2022-08-19T03:45:20;98300.72;;;22.76;84.09
5455;BME280;2750;49.050;9.250;2022-08-19T03:50:22;98301.66;;;22.67;84.29
5455;BME280;2750;49.050;9.250;2022-08-19T03:55:25;98308.06;;;22.56;84.81
5455;BME280;2750;49.050;9.250;2022-08-19T04:00:27;98309.22;;;22.62;84.59
5455;BME280;2750;49.050;9.250;2022-08-19T04:05:28;98293.75;;;22.41;85.35
5455;BME280;2750;49.050;9.250;2022-08-19T04:10:35;98299.22;;;22.14;86.58
5455;BME280;2750;49.050;9.250;2022-08-19T04:15:39;98304.72;;;22.20;86.21
5455;BME280;2750;49.050;9.250;2022-08-19T04:20:43;98303.94;;;22.28;85.71
5455;BME280;2750;49.050;9.250;2022-08-19T04:25:46;98302.50;;;22.33;85.55
5455;BME280;2750;49.050;9.250;2022-08-19T04:30:50;98299.75;;;22.51;85.07
5455;BME280;2750;49.050;9.250;2022-08-19T04:35:52;98301.59;;;22.59;84.86
5455;BME280;2750;49.050;9.250;2022-08-19T04:40:55;98285.72;;;22.59;84.70
5455;BME280;2750;49.050;9.250;2022-08-19T04:46:14;98284.53;;;22.45;85.41
5455;BME280;2750;49.050;9.250;2022-08-19T04:51:17;98295.22;;;22.35;85.71
5455;BME280;2750;49.050;9.250;2022-08-19T04:56:20;98302.38;;;22.69;84.67
5455;BME280;2750;49.050;9.250;2022-08-19T05:01:25;98303.59;;;22.57;84.56
5455;BME280;2750;49.050;9.250;2022-08-19T05:06:28;98316.94;;;22.81;84.12
5455;BME280;2750;49.050;9.250;2022-08-19T05:11:36;98317.44;;;22.84;84.01
5455;BME280;2750;49.050;9.250;2022-08-19T05:16:40;98323.72;;;22.75;84.02
5455;BME280;2750;49.050;9.250;2022-08-19T05:21:42;98331.53;;;22.93;83.44
5455;BME280;2750;49.050;9.250;2022-08-19T05:27:03;98336.72;;;23.03;83.46
5455;BME280;2750;49.050;9.250;2022-08-19T05:32:06;98352.41;;;22.96;83.98
5455;BME280;2750;49.050;9.250;2022-08-19T05:37:08;98359.69;;;22.94;83.86
5455;BME280;2750;49.050;9.250;2022-08-19T05:42:12;98366.06;;;23.17;83.05
5455;BME280;2750;49.050;9.250;2022-08-19T05:47:15;98371.31;;;23.09;83.01
5455;BME280;2750;49.050;9.250;2022-08-19T05:52:18;98382.81;;;22.92;83.71
5455;BME280;2750;49.050;9.250;2022-08-19T05:57:22;98389.41;;;23.22;82.54
5455;BME280;2750;49.050;9.250;2022-08-19T06:02:23;98398.91;;;22.99;83.21
5455;BME280;2750;49.050;9.250;2022-08-19T06:07:25;98412.38;;;23.13;82.52
5455;BME280;2750;49.050;9.250;2022-08-19T06:12:29;98400.63;;;23.16;82.44
5455;BME280;2750;49.050;9.250;2022-08-19T06:17:33;98396.88;;;23.34;81.82
5455;BME280;2750;49.050;9.250;2022-08-19T06:22:37;98389.78;;;22.93;83.78
5455;BME280;2750;49.050;9.250;2022-08-19T06:27:40;98396.97;;;22.75;84.09
5455;BME280;2750;49.050;9.250;2022-08-19T06:32:42;98394.56;;;23.31;82.38
5455;BME280;2750;49.050;9.250;2022-08-19T06:37:44;98397.94;;;23.58;81.39
5455;BME280;2750;49.050;9.250;2022-08-19T06:42:47;98395.19;;;24.08;79.70
5455;BME280;2750;49.050;9.250;2022-08-19T06:47:49;98402.13;;;23.85;80.78
5455;BME280;2750;49.050;9.250;2022-08-19T06:52:51;98404.84;;;24.17;79.32
5455;BME280;2750;49.050;9.250;2022-08-19T06:57:55;98398.31;;;24.11;80.06
5455;BME280;2750;49.050;9.250;2022-08-19T07:02:57;98402.97;;;24.01;80.32
5455;BME280;2750;49.050;9.250;2022-08-19T07:07:58;98393.72;;;24.13;79.89
5455;BME280;2750;49.050;9.250;2022-08-19T07:13:01;98392.34;;;23.69;80.56
5455;BME280;2750;49.050;9.250;2022-08-19T07:18:03;98404.81;;;24.09;79.66
5455;BME280;2750;49.050;9.250;2022-08-19T07:23:05;98403.16;;;24.24;79.66
5455;BME280;2750;49.050;9.250;2022-08-19T07:28:07;98409.59;;;23.81;80.60
5455;BME280;2750;49.050;9.250;2022-08-19T07:33:10;98419.66;;;23.69;81.31
5455;BME280;2750;49.050;9.250;2022-08-19T07:38:11;98419.22;;;23.98;79.89
5455;BME280;2750;49.050;9.250;2022-08-19T07:43:14;98418.53;;;23.96;80.38
5455;BME280;2750;49.050;9.250;2022-08-19T07:48:16;98419.22;;;23.98;80.01
5455;BME280;2750;49.050;9.250;2022-08-19T07:53:17;98418.59;;;24.45;78.72
5455;BME280;2750;49.050;9.250;2022-08-19T07:58:22;98423.22;;;24.10;80.02
5455;BME280;2750;49.050;9.250;2022-08-19T08:03:24;98428.31;;;23.79;81.35
5455;BME280;2750;49.050;9.250;2022-08-19T08:08:45;98422.88;;;23.97;80.51
5455;BME280;2750;49.050;9.250;2022-08-19T08:14:06;98426.19;;;24.07;80.55
5455;BME280;2750;49.050;9.250;2022-08-19T08:19:08;98425.53;;;24.13;80.34
5455;BME280;2750;49.050;9.250;2022-08-19T08:24:10;98427.88;;;24.16;80.52
5455;BME280;2750;49.050;9.250;2022-08-19T08:29:13;98436.81;;;24.48;79.54
5455;BME280;2750;49.050;9.250;2022-08-19T08:34:15;98440.59;;;24.05;80.63
5455;BME280;2750;49.050;9.250;2022-08-19T08:39:20;98455.31;;;23.75;82.11
5455;BME280;2750;49.050;9.250;2022-08-19T08:44:31;98446.06;;;24.03;81.24
5455;BME280;2750;49.050;9.250;2022-08-19T08:49:44;98439.47;;;24.23;80.89
5455;BME280;2750;49.050;9.250;2022-08-19T08:54:48;98423.81;;;24.85;79.18
5455;BME280;2750;49.050;9.250;2022-08-19T08:59:53;98426.25;;;25.42;77.91
5455;BME280;2750;49.050;9.250;2022-08-19T09:04:57;98420.28;;;25.79;76.40
5455;BME280;2750;49.050;9.250;2022-08-19T09:10:04;98409.44;;;26.26;75.29
5455;BME280;2750;49.050;9.250;2022-08-19T09:15:12;98425.59;;;26.76;74.35
5455;BME280;2750;49.050;9.250;2022-08-19T09:20:18;98423.91;;;26.46;74.44
5455;BME280;2750;49.050;9.250;2022-08-19T09:25:21;98421.03;;;26.10;75.43
5455;BME280;2750;49.050;9.250;2022-08-19T09:30:26;98422.56;;;25.82;76.05
5455;BME280;2750;49.050;9.250;2022-08-19T09:35:29;98429.41;;;25.99;75.92
5455;BME280;2750;49.050;9.250;2022-08-19T09:40:31;98436.91;;;26.18;75.42
5455;BME280;2750;49.050;9.250;2022-08-19T09:45:34;98432.13;;;26.59;74.60
5455;BME280;2750;49.050;9.250;2022-08-19T09:50:35;98437.13;;;26.39;74.93
5455;BME280;2750;49.050;9.250;2022-08-19T09:55:41;98441.13;;;25.90;76.31
5455;BME280;2750;49.050;9.250;2022-08-19T10:00:44;98431.94;;;25.69;76.85
5455;BME280;2750;49.050;9.250;2022-08-19T10:05:46;98447.50;;;25.42;77.85
5455;BME280;2750;49.050;9.250;2022-08-19T10:10:51;98447.38;;;25.74;77.10
5455;BME280;2750;49.050;9.250;2022-08-19T10:15:55;98439.66;;;25.87;76.76
5455;BME280;2750;49.050;9.250;2022-08-19T10:21:04;98427.66;;;26.89;74.09
5455;BME280;2750;49.050;9.250;2022-08-19T10:26:08;98440.03;;;26.82;73.96
5455;BME280;2750;49.050;9.250;2022-08-19T10:31:14;98428.09;;;27.22;72.78
5455;BME280;2750;49.050;9.250;2022-08-19T10:36:17;98420.72;;;27.53;71.04
5455;BME280;2750;49.050;9.250;2022-08-19T10:41:21;98420.03;;;28.01;69.95
5455;BME280;2750;49.050;9.250;2022-08-19T10:46:26;98413.72;;;29.20;66.60
5455;BME280;2750;49.050;9.250;2022-08-19T10:51:28;98407.16;;;28.33;66.45
5455;BME280;2750;49.050;9.250;2022-08-19T10:56:47;98398.13;;;28.34;66.42
5455;BME280;2750;49.050;9.250;2022-08-19T11:01:54;98407.66;;;27.58;67.11
5455;BME280;2750;49.050;9.250;2022-08-19T11:06:59;98410.84;;;27.03;68.34
5455;BME280;2750;49.050;9.250;2022-08-19T11:12:01;98407.81;;;27.21;68.24
5455;BME280;2750;49.050;9.250;2022-08-19T11:17:04;98409.31;;;27.59;66.50
5455;BME280;2750;49.050;9.250;2022-08-19T11:22:07;98399.59;;;27.51;66.31
5455;BME280;2750;49.050;9.250;2022-08-19T11:27:10;98400.81;;;27.70;66.10
5455;BME280;2750;49.050;9.250;2022-08-19T11:32:13;98389.44;;;28.53;64.33
5455;BME280;2750;49.050;9.250;2022-08-19T11:37:15;98386.69;;;29.02;63.01
5455;BME280;2750;49.050;9.250;2022-08-19T11:42:17;98388.03;;;28.57;63.47
5455;BME280;2750;49.050;9.250;2022-08-19T11:47:34;98395.88;;;28.10;64.08
5455;BME280;2750;49.050;9.250;2022-08-19T11:52:35;98393.53;;;27.79;65.59
5455;BME280;2750;49.050;9.250;2022-08-19T11:57:37;98386.53;;;28.48;64.33
5455;BME280;2750;49.050;9.250;2022-08-19T12:02:40;98382.69;;;29.26;62.12
5455;BME280;2750;49.050;9.250;2022-08-19T12:07:42;98396.16;;;29.52;61.52
5455;BME280;2750;49.050;9.250;2022-08-19T12:12:44;98391.50;;;29.74;60.56
5455;BME280;2750;49.050;9.250;2022-08-19T12:17:47;98384.78;;;30.11;60.10
5455;BME280;2750;49.050;9.250;2022-08-19T12:22:49;98384.50;;;29.79;60.99
5455;BME280;2750;49.050;9.250;2022-08-19T12:27:51;98380.47;;;30.23;59.51
5455;BME280;2750;49.050;9.250;2022-08-19T12:32:54;98381.50;;;30.35;59.88
5455;BME280;2750;49.050;9.250;2022-08-19T12:37:55;98377.94;;;30.80;59.06
5455;BME280;2750;49.050;9.250;2022-08-19T12:42:57;98382.09;;;30.63;59.19
5455;BME280;2750;49.050;9.250;2022-08-19T12:48:00;98376.53;;;30.32;60.47
5455;BME280;2750;49.050;9.250;2022-08-19T12:53:03;98381.66;;;30.40;60.36
5455;BME280;2750;49.050;9.250;2022-08-19T12:58:05;98382.66;;;30.78;60.28
5455;BME280;2750;49.050;9.250;2022-08-19T13:03:07;98384.94;;;30.88;59.23
5455;BME280;2750;49.050;9.250;2022-08-19T13:08:09;98389.13;;;30.31;61.13
5455;BME280;2750;49.050;9.250;2022-08-19T13:13:10;98389.50;;;30.42;61.17
5455;BME280;2750;49.050;9.250;2022-08-19T13:18:13;98393.47;;;29.39;64.71
5455;BME280;2750;49.050;9.250;2022-08-19T13:23:15;98390.16;;;28.40;69.32
5455;BME280;2750;49.050;9.250;2022-08-19T13:28:16;98379.72;;;29.08;67.80
5455;BME280;2750;49.050;9.250;2022-08-19T13:33:19;98376.34;;;30.53;63.17
5455;BME280;2750;49.050;9.250;2022-08-19T13:38:21;98379.31;;;31.16;60.90
5455;BME280;2750;49.050;9.250;2022-08-19T13:43:25;98384.06;;;30.94;60.59
5455;BME280;2750;49.050;9.250;2022-08-19T13:48:28;98380.56;;;31.07;60.88
5455;BME280;2750;49.050;9.250;2022-08-19T13:53:31;98385.16;;;30.67;60.23
5455;BME280;2750;49.050;9.250;2022-08-19T13:58:33;98382.53;;;30.47;59.45
5455;BME280;2750;49.050;9.250;2022-08-19T14:03:35;98389.09;;;30.05;60.83
5455;BME280;2750;49.050;9.250;2022-08-19T14:08:37;98383.28;;;29.82;61.13
5455;BME280;2750;49.050;9.250;2022-08-19T14:13:41;98392.63;;;28.63;68.78
5455;BME280;2750;49.050;9.250;2022-08-19T14:18:44;98388.22;;;28.56;69.25
5455;BME280;2750;49.050;9.250;2022-08-19T14:23:46;98384.16;;;28.87;68.88
5455;BME280;2750;49.050;9.250;2022-08-19T14:28:48;98378.63;;;29.36;67.53
5455;BME280;2750;49.050;9.250;2022-08-19T14:33:51;98369.47;;;29.59;66.61
5455;BME280;2750;49.050;9.250;2022-08-19T14:38:53;98374.53;;;29.40;67.65
5455;BME280;2750;49.050;9.250;2022-08-19T14:43:54;98365.69;;;28.99;67.57
5455;BME280;2750;49.050;9.250;2022-08-19T14:48:57;98374.97;;;29.03;66.60
5455;BME280;2750;49.050;9.250;2022-08-19T14:53:59;98389.19;;;28.48;68.78
5455;BME280;2750;49.050;9.250;2022-08-19T14:59:00;98391.94;;;27.63;74.31
5455;BME280;2750;49.050;9.250;2022-08-19T15:04:03;98386.94;;;26.80;78.61
5455;BME280;2750;49.050;9.250;2022-08-19T15:09:05;98394.31;;;26.03;82.27
5455;BME280;2750;49.050;9.250;2022-08-19T15:14:07;98399.78;;;25.87;83.48
5455;BME280;2750;49.050;9.250;2022-08-19T15:19:13;98400.44;;;25.58;85.28
5455;BME280;2750;49.050;9.250;2022-08-19T15:24:14;98412.28;;;25.56;87.33
5455;BME280;2750;49.050;9.250;2022-08-19T15:29:16;98411.81;;;25.75;87.87
5455;BME280;2750;49.050;9.250;2022-08-19T15:34:19;98416.41;;;25.81;87.96
5455;BME280;2750;49.050;9.250;2022-08-19T15:39:20;98415.72;;;25.87;87.19
5455;BME280;2750;49.050;9.250;2022-08-19T15:44:22;98416.84;;;26.53;84.75
5455;BME280;2750;49.050;9.250;2022-08-19T15:49:26;98414.38;;;27.90;81.39
5455;BME280;2750;49.050;9.250;2022-08-19T15:54:28;98417.16;;;29.08;76.26
5455;BME280;2750;49.050;9.250;2022-08-19T15:59:30;98420.31;;;29.65;74.97
5455;BME280;2750;49.050;9.250;2022-08-19T16:04:51;98416.22;;;29.82;74.32
5455;BME280;2750;49.050;9.250;2022-08-19T16:10:11;98410.38;;;29.53;72.84
5455;BME280;2750;49.050;9.250;2022-08-19T16:15:13;98415.88;;;30.05;71.70
5455;BME280;2750;49.050;9.250;2022-08-19T16:20:16;98418.78;;;30.30;70.57
5455;BME280;2750;49.050;9.250;2022-08-19T16:25:21;98423.59;;;29.67;72.19
5455;BME280;2750;49.050;9.250;2022-08-19T16:30:26;98431.13;;;30.05;71.28
5455;BME280;2750;49.050;9.250;2022-08-19T16:35:29;98426.63;;;30.45;69.83
5455;BME280;2750;49.050;9.250;2022-08-19T16:40:30;98417.44;;;29.73;70.86
5455;BME280;2750;49.050;9.250;2022-08-19T16:45:32;98424.16;;;29.56;71.15
5455;BME280;2750;49.050;9.250;2022-08-19T16:50:35;98432.94;;;29.37;72.00
5455;BME280;2750;49.050;9.250;2022-08-19T16:55:37;98430.69;;;29.00;72.52
5455;BME280;2750;49.050;9.250;2022-08-19T17:00:38;98433.50;;;28.15;74.43
5455;BME280;2750;49.050;9.250;2022-08-19T17:05:42;98431.09;;;27.63;75.25
5455;BME280;2750;49.050;9.250;2022-08-19T17:10:44;98443.28;;;27.21;75.77
5455;BME280;2750;49.050;9.250;2022-08-19T17:15:46;98432.81;;;27.05;76.25
5455;BME280;2750;49.050;9.250;2022-08-19T17:20:50;98439.19;;;26.67;77.24
5455;BME280;2750;49.050;9.250;2022-08-19T17:25:52;98449.56;;;26.61;77.56
5455;BME280;2750;49.050;9.250;2022-08-19T17:30:54;98448.47;;;26.56;78.42
5455;BME280;2750;49.050;9.250;2022-08-19T17:35:57;98455.81;;;26.31;78.81
5455;BME280;2750;49.050;9.250;2022-08-19T17:40:59;98449.69;;;26.45;78.45
5455;BME280;2750;49.050;9.250;2022-08-19T17:46:05;98458.63;;;26.07;80.13
5455;BME280;2750;49.050;9.250;2022-08-19T17:51:14;98458.34;;;26.02;79.88
5455;BME280;2750;49.050;9.250;2022-08-19T17:56:16;98459.09;;;25.88;80.52
5455;BME280;2750;49.050;9.250;2022-08-19T18:01:18;98465.34;;;25.72;81.22
5455;BME280;2750;49.050;9.250;2022-08-19T18:06:21;98468.75;;;25.50;82.13
5455;BME280;2750;49.050;9.250;2022-08-19T18:11:23;98476.41;;;25.53;81.61
5455;BME280;2750;49.050;9.250;2022-08-19T18:16:24;98479.63;;;25.32;81.86
5455;BME280;2750;49.050;9.250;2022-08-19T18:21:27;98478.88;;;24.99;82.59
5455;BME280;2750;49.050;9.250;2022-08-19T18:26:30;98489.19;;;25.02;82.67
5455;BME280;2750;49.050;9.250;2022-08-19T18:31:32;98487.50;;;25.09;82.36
5455;BME280;2750;49.050;9.250;2022-08-19T18:36:36;98484.22;;;24.83;83.15
5455;BME280;2750;49.050;9.250;2022-08-19T18:41:37;98491.22;;;24.68;83.85
5455;BME280;2750;49.050;9.250;2022-08-19T18:46:56;98494.22;;;24.49;84.22
5455;BME280;2750;49.050;9.250;2022-08-19T18:52:28;98502.16;;;24.24;85.19
5455;BME280;2750;49.050;9.250;2022-08-19T18:57:31;98504.09;;;24.06;86.40
5455;BME280;2750;49.050;9.250;2022-08-19T19:02:36;98504.06;;;23.98;86.21
5455;BME280;2750;49.050;9.250;2022-08-19T19:07:41;98510.69;;;23.94;86.73
5455;BME280;2750;49.050;9.250;2022-08-19T19:12:42;98519.28;;;23.88;87.29
5455;BME280;2750;49.050;9.250;2022-08-19T19:17:44;98533.22;;;23.90;86.59
5455;BME280;2750;49.050;9.250;2022-08-19T19:22:47;98531.50;;;23.65;87.50
5455;BME280;2750;49.050;9.250;2022-08-19T19:27:49;98534.69;;;23.43;88.78
5455;BME280;2750;49.050;9.250;2022-08-19T19:32:50;98538.84;;;23.87;87.78
5455;BME280;2750;49.050;9.250;2022-08-19T19:37:54;98539.88;;;24.02;86.74
5455;BME280;2750;49.050;9.250;2022-08-19T19:42:56;98546.25;;;24.17;85.49
5455;BME280;2750;49.050;9.250;2022-08-19T19:47:59;98553.88;;;24.20;85.22
5455;BME280;2750;49.050;9.250;2022-08-19T19:53:02;98544.63;;;24.41;85.12
5455;BME280;2750;49.050;9.250;2022-08-19T19:58:03;98551.28;;;24.45;84.59
5455;BME280;2750;49.050;9.250;2022-08-19T20:03:06;98553.53;;;24.15;85.59
5455;BME280;2750;49.050;9.250;2022-08-19T20:08:09;98559.53;;;24.42;84.79
5455;BME280;2750;49.050;9.250;2022-08-19T20:13:29;98564.91;;;24.08;85.94
5455;BME280;2750;49.050;9.250;2022-08-19T20:18:31;98565.50;;;24.36;84.80
5455;BME280;2750;49.050;9.250;2022-08-19T20:23:34;98579.41;;;24.21;85.13
5455;BME280;2750;49.050;9.250;2022-08-19T20:28:35;98577.44;;;24.40;83.81
5455;BME280;2750;49.050;9.250;2022-08-19T20:33:36;98572.78;;;24.17;87.08
5455;BME280;2750;49.050;9.250;2022-08-19T20:38:40;98564.34;;;23.88;88.45
5455;BME280;2750;49.050;9.250;2022-08-19T20:43:42;98572.63;;;23.85;89.17
5455;BME280;2750;49.050;9.250;2022-08-19T20:48:44;98567.00;;;23.88;89.25
5455;BME280;2750;49.050;9.250;2022-08-19T20:53:47;98560.78;;;23.63;90.23
5455;BME280;2750;49.050;9.250;2022-08-19T20:58:49;98560.97;;;23.36;91.76
5455;BME280;2750;49.050;9.250;2022-08-19T21:03:51;98565.97;;;23.13;92.09
5455;BME280;2750;49.050;9.250;2022-08-19T21:08:54;98573.31;;;23.27;88.88
5455;BME280;2750;49.050;9.250;2022-08-19T21:13:55;98570.38;;;23.56;89.68
5455;BME280;2750;49.050;9.250;2022-08-19T21:18:57;98572.38;;;23.62;89.28
5455;BME280;2750;49.050;9.250;2022-08-19T21:24:00;98575.50;;;23.92;88.06
5455;BME280;2750;49.050;9.250;2022-08-19T21:29:01;98580.16;;;24.06;87.12
5455;BME280;2750;49.050;9.250;2022-08-19T21:34:03;98576.84;;;24.04;87.12
5455;BME280;2750;49.050;9.250;2022-08-19T21:39:06;98579.41;;;24.21;86.88
5455;BME280;2750;49.050;9.250;2022-08-19T21:44:08;98583.94;;;24.37;86.31
5455;BME280;2750;49.050;9.250;2022-08-19T21:49:09;98590.72;;;24.40;85.81
5455;BME280;2750;49.050;9.250;2022-08-19T21:54:12;98589.06;;;24.39;86.63
5455;BME280;2750;49.050;9.250;2022-08-19T21:59:14;98598.00;;;24.30;86.20
5455;BME280;2750;49.050;9.250;2022-08-19T22:04:17;98599.69;;;24.47;84.82
5455;BME280;2750;49.050;9.250;2022-08-19T22:09:20;98598.00;;;24.46;84.88
5455;BME280;2750;49.050;9.250;2022-08-19T22:14:22;98598.47;;;24.17;86.17
5455;BME280;2750;49.050;9.250;2022-08-19T22:19:23;98603.25;;;23.71;87.06
5455;BME280;2750;49.050;9.250;2022-08-19T22:24:26;98601.38;;;23.64;87.63
5455;BME280;2750;49.050;9.250;2022-08-19T22:29:28;98601.16;;;23.57;88.02
5455;BME280;2750;49.050;9.250;2022-08-19T22:34:29;98605.34;;;23.16;89.57
5455;BME280;2750;49.050;9.250;2022-08-19T22:39:32;98605.72;;;22.78;86.50
5455;BME280;2750;49.050;9.250;2022-08-19T22:49:35;98609.75;;;23.08;83.45
5455;BME280;2750;49.050;9.250;2022-08-19T22:54:38;98612.25;;;23.35;81.08
5455;BME280;2750;49.050;9.250;2022-08-19T22:59:40;98617.69;;;23.08;80.62
5455;BME280;2750;49.050;9.250;2022-08-19T23:04:41;98626.78;;;23.05;80.59
5455;BME280;2750;49.050;9.250;2022-08-19T23:09:44;98620.25;;;22.92;79.82
5455;BME280;2750;49.050;9.250;2022-08-19T23:14:45;98621.06;;;22.92;79.54
5455;BME280;2750;49.050;9.250;2022-08-19T23:19:47;98616.06;;;22.89;79.07
5455;BME280;2750;49.050;9.250;2022-08-19T23:24:51;98619.22;;;22.39;80.08
5455;BME280;2750;49.050;9.250;2022-08-19T23:29:52;98618.91;;;22.42;79.73
5455;BME280;2750;49.050;9.250;2022-08-19T23:35:11;98618.09;;;22.42;79.54
5455;BME280;2750;49.050;9.250;2022-08-19T23:40:14;98622.69;;;22.58;78.86
5455;BME280;2750;49.050;9.250;2022-08-19T23:45:17;98624.25;;;22.78;78.13
5455;BME280;2750;49.050;9.250;2022-08-19T23:50:20;98624.44;;;22.67;78.65
5455;BME280;2750;49.050;9.250;2022-08-19T23:55:25;98628.06;;;22.66;78.93
